Rolls, Texas
Current Conditions -  °F | °C
As of 1:58 AM on Friday 31 Oct 2014 (Local Time) from KDYS Reporting Station
Clear Clear  
Wind Chill: 56°   Ceiling: Unl
Heat Index: 56°   Visibility: 10mi
Dew Point: 41°   Wind: 7mph
Humidity: 58%   Direction: 30°NNE
Pressure: 30.26"   Gusts: NA
Location:  33.1968°N, 99.9025°W
Report Text: KDYS 310658Z AUTO 03006KT 10SM CLR 13/05 A3026 RMK AO2 SLP217 T01320052 $
Loading
Personal Weather Stations






























Interactive Weather Map New forecast layout! Learn more

10-Day Weather Forecast

Advertisements
Track Severe Weather on mobile